createdAt,value
2018-02-20T00:00:01.965Z,27.80
2018-02-20T00:02:29.429Z,28.80
2018-02-20T00:04:56.959Z,27.90
2018-02-20T00:07:24.418Z,29.55
2018-02-20T00:09:51.906Z,29.90
2018-02-20T00:12:19.548Z,28.85
2018-02-20T00:14:47.017Z,28.77
2018-02-20T00:17:15.464Z,29.63
2018-02-20T00:19:42.943Z,31.50
2018-02-20T00:22:10.412Z,29.33
2018-02-20T00:24:38.167Z,30.17
2018-02-20T00:27:05.931Z,29.58
2018-02-20T00:29:33.392Z,27.08
2018-02-20T00:32:00.939Z,28.23
2018-02-20T00:34:28.399Z,26.80
2018-02-20T00:36:55.864Z,25.37
2018-02-20T00:39:23.335Z,26.27
2018-02-20T00:41:51.565Z,25.98
2018-02-20T00:44:19.023Z,26.35
2018-02-20T00:46:46.501Z,23.70
2018-02-20T00:49:13.984Z,25.58
2018-02-20T00:51:41.648Z,25.65
2018-02-20T00:54:09.113Z,30.60
2018-02-20T00:56:36.632Z,30.52
2018-02-20T00:59:04.148Z,26.87
2018-02-20T01:01:31.872Z,24.85
2018-02-20T01:03:59.560Z,25.55
2018-02-20T01:06:27.103Z,23.17
2018-02-20T01:08:54.585Z,22.77
2018-02-20T01:11:22.326Z,20.52
2018-02-20T01:13:49.778Z,21.12
2018-02-20T01:16:17.358Z,19.30
2018-02-20T01:18:45.617Z,22.20
2018-02-20T01:21:13.293Z,24.23
2018-02-20T01:23:40.844Z,20.80
2018-02-20T01:26:08.606Z,23.20
2018-02-20T01:28:36.272Z,21.37
2018-02-20T01:31:03.823Z,22.80
2018-02-20T01:33:31.296Z,20.70
2018-02-20T01:35:58.771Z,21.75
2018-02-20T01:38:26.663Z,20.90
2018-02-20T01:40:54.268Z,22.55
2018-02-20T01:43:21.728Z,22.45
2018-02-20T01:45:49.500Z,20.42
2018-02-20T01:48:17.080Z,22.00
2018-02-20T01:50:56.998Z,22.62
2018-02-20T01:53:24.766Z,22.73
2018-02-20T01:55:52.232Z,21.70
2018-02-20T01:58:20.002Z,22.85
2018-02-20T02:00:47.759Z,23.55
2018-02-20T02:03:15.524Z,22.45
2018-02-20T02:05:43.287Z,21.40
2018-02-20T02:08:11.060Z,21.25
2018-02-20T02:10:38.815Z,21.60
2018-02-20T02:13:06.283Z,21.67
2018-02-20T02:15:33.759Z,21.55
2018-02-20T02:18:01.223Z,22.40
2018-02-20T02:20:28.968Z,23.38
2018-02-20T02:22:56.721Z,22.42
2018-02-20T02:25:24.351Z,24.10
2018-02-20T02:27:51.804Z,21.42
2018-02-20T02:30:19.408Z,22.10
2018-02-20T02:32:47.076Z,21.87
2018-02-20T02:35:14.546Z,21.58
2018-02-20T02:37:42.095Z,24.02
2018-02-20T02:40:09.772Z,22.27
2018-02-20T02:42:38.227Z,21.25
2018-02-20T02:45:05.996Z,20.95
2018-02-20T02:47:33.678Z,20.17
2018-02-20T02:50:01.140Z,23.35
2018-02-20T02:52:28.612Z,21.23
2018-02-20T02:54:56.140Z,22.55
2018-02-20T02:57:23.860Z,19.95
2018-02-20T02:59:51.673Z,22.13
2018-02-20T03:02:19.444Z,19.80
2018-02-20T03:04:47.816Z,19.67
2018-02-20T03:07:15.573Z,21.80
2018-02-20T03:09:43.038Z,20.90
2018-02-20T03:12:10.502Z,20.40
2018-02-20T03:14:38.263Z,22.35
2018-02-20T03:17:05.728Z,22.95
2018-02-20T03:19:33.191Z,21.62
2018-02-20T03:22:00.660Z,18.98
2018-02-20T03:24:28.128Z,21.50
2018-02-20T03:26:55.607Z,22.67
2018-02-20T03:29:23.311Z,23.05
2018-02-20T03:31:50.769Z,22.58
2018-02-20T03:34:18.529Z,22.75
2018-02-20T03:36:46.296Z,22.30
2018-02-20T03:39:14.060Z,22.48
2018-02-20T03:41:41.516Z,22.27
2018-02-20T03:44:09.236Z,21.15
2018-02-20T03:46:36.740Z,22.90
2018-02-20T03:49:04.513Z,20.88
2018-02-20T03:51:31.973Z,21.30
2018-02-20T03:53:59.728Z,22.27
2018-02-20T03:56:27.492Z,22.70
2018-02-20T03:58:54.957Z,24.77
2018-02-20T04:01:22.720Z,22.95
2018-02-20T04:03:50.484Z,24.05
2018-02-20T04:06:18.263Z,23.62
2018-02-20T04:08:45.740Z,23.65
2018-02-20T04:11:13.474Z,24.73
2018-02-20T04:13:41.238Z,24.35
2018-02-20T04:16:09.004Z,26.58
2018-02-20T04:18:36.467Z,25.27
2018-02-20T04:21:04.534Z,26.60
2018-02-20T04:23:32.204Z,28.27
2018-02-20T04:25:59.655Z,27.27
2018-02-20T04:28:28.131Z,28.33
2018-02-20T04:30:55.596Z,29.73
2018-02-20T04:33:23.363Z,27.30
2018-02-20T04:35:51.116Z,24.27
2018-02-20T04:38:18.888Z,26.30
2018-02-20T04:40:46.652Z,26.30
2018-02-20T04:43:14.420Z,26.15
2018-02-20T04:45:42.491Z,24.58
2018-02-20T04:48:10.251Z,24.08
2018-02-20T04:50:37.720Z,26.20
2018-02-20T04:53:05.176Z,24.35
2018-02-20T04:55:32.649Z,22.42
2018-02-20T04:58:00.120Z,25.10
2018-02-20T05:00:27.852Z,23.33
2018-02-20T05:02:55.612Z,25.25
2018-02-20T05:05:23.380Z,23.80
2018-02-20T05:07:50.920Z,26.08
2018-02-20T05:10:18.608Z,24.77
2018-02-20T05:12:46.112Z,24.48
2018-02-20T05:15:13.611Z,24.35
2018-02-20T05:17:41.213Z,22.67
2018-02-20T05:20:09.631Z,21.10
2018-02-20T05:22:37.107Z,21.45
2018-02-20T05:25:04.584Z,20.95
2018-02-20T05:27:32.045Z,22.60
2018-02-20T05:29:59.728Z,20.30
2018-02-20T05:32:27.260Z,22.95
2018-02-20T05:34:54.720Z,21.10
2018-02-20T05:37:22.188Z,20.30
2018-02-20T05:39:49.940Z,23.15
2018-02-20T05:42:17.411Z,22.15
2018-02-20T05:44:45.308Z,21.52
2018-02-20T05:47:12.775Z,23.35
2018-02-20T05:49:40.383Z,19.20
2018-02-20T05:52:07.848Z,21.20
2018-02-20T05:54:35.318Z,22.23
2018-02-20T05:57:02.884Z,21.65
2018-02-20T05:59:31.120Z,23.23
2018-02-20T06:01:58.584Z,20.77
2018-02-20T06:04:26.055Z,21.50
2018-02-20T06:06:53.821Z,20.92
2018-02-20T06:09:21.587Z,21.05
2018-02-20T06:11:49.065Z,23.33
2018-02-20T06:14:16.728Z,21.98
2018-02-20T06:16:44.196Z,20.73
2018-02-20T06:19:11.664Z,18.92
2018-02-20T06:21:39.184Z,17.98
2018-02-20T06:24:06.860Z,18.27
2018-02-20T06:26:34.319Z,20.55
2018-02-20T06:29:01.870Z,20.23
2018-02-20T06:31:29.504Z,20.80
2018-02-20T06:33:56.999Z,20.35
2018-02-20T06:36:24.550Z,18.52
2018-02-20T06:38:52.254Z,20.75
2018-02-20T06:41:19.776Z,20.45
2018-02-20T06:43:47.235Z,20.77
2018-02-20T06:46:14.992Z,19.60
2018-02-20T06:48:42.668Z,21.87
2018-02-20T06:51:10.140Z,19.87
2018-02-20T06:53:37.664Z,21.98
2018-02-20T06:56:05.216Z,23.40
2018-02-20T06:58:32.683Z,24.00
2018-02-20T07:01:00.158Z,24.10
2018-02-20T07:03:27.632Z,26.40
2018-02-20T07:05:55.855Z,20.98
2018-02-20T07:08:23.319Z,22.95
2018-02-20T07:10:50.800Z,24.52
2018-02-20T07:13:18.275Z,22.75
2018-02-20T07:15:45.736Z,25.30
2018-02-20T07:18:13.476Z,24.70
2018-02-20T07:20:41.166Z,25.20
2018-02-20T07:23:08.754Z,23.08
2018-02-20T07:25:36.311Z,23.70
2018-02-20T07:28:03.785Z,23.77
2018-02-20T07:30:31.267Z,23.80
2018-02-20T07:32:58.736Z,24.02
2018-02-20T07:35:26.296Z,25.25
2018-02-20T07:37:54.065Z,23.00
2018-02-20T07:40:21.747Z,23.40
2018-02-20T07:42:49.216Z,21.92
2018-02-20T07:45:16.747Z,21.58
2018-02-20T07:47:44.513Z,20.35
2018-02-20T07:50:12.149Z,21.85
2018-02-20T07:52:39.621Z,20.98
2018-02-20T07:55:07.105Z,23.77
2018-02-20T07:57:34.648Z,21.20
2018-02-20T08:00:02.109Z,21.92
2018-02-20T08:02:29.571Z,23.12
2018-02-20T08:04:57.255Z,22.83
2018-02-20T08:07:24.924Z,20.50
2018-02-20T08:09:53.150Z,23.48
2018-02-20T08:12:20.923Z,21.95
2018-02-20T08:14:48.695Z,20.98
2018-02-20T08:17:16.167Z,23.60
2018-02-20T08:19:43.906Z,25.08
2018-02-20T08:22:11.388Z,23.15
2018-02-20T08:24:38.859Z,22.62
2018-02-20T08:27:06.320Z,20.70
2018-02-20T08:29:34.056Z,24.87
2018-02-20T08:32:01.517Z,21.65
2018-02-20T08:34:28.984Z,22.80
2018-02-20T08:36:56.731Z,21.67
2018-02-20T08:39:24.196Z,20.90
2018-02-20T08:41:51.664Z,20.48
2018-02-20T08:44:19.412Z,21.37
2018-02-20T08:46:46.880Z,24.10
2018-02-20T08:49:14.553Z,22.15
2018-02-20T08:51:42.098Z,21.30
2018-02-20T08:54:09.863Z,24.85
2018-02-20T08:56:37.543Z,21.30
2018-02-20T08:59:05.021Z,19.70
2018-02-20T09:01:32.510Z,21.85
2018-02-20T09:03:59.972Z,21.70
2018-02-20T09:06:27.446Z,23.48
2018-02-20T09:08:54.908Z,21.50
2018-02-20T09:11:22.429Z,20.27
2018-02-20T09:13:50.053Z,20.48
2018-02-20T09:16:18.280Z,21.67
2018-02-20T09:18:45.786Z,21.55
2018-02-20T09:21:13.432Z,18.98
2018-02-20T09:23:41.105Z,20.23
2018-02-20T09:26:08.576Z,20.30
2018-02-20T09:28:36.958Z,18.60
2018-02-20T09:31:04.421Z,21.52
2018-02-20T09:33:31.947Z,20.02
2018-02-20T09:35:59.412Z,19.40
2018-02-20T09:38:26.893Z,19.12
2018-02-20T09:40:54.350Z,18.17
2018-02-20T09:43:22.000Z,19.05
2018-02-20T09:45:50.468Z,19.33
2018-02-20T09:48:17.928Z,18.08
2018-02-20T09:50:45.404Z,16.77
2018-02-20T09:53:12.860Z,18.62
2018-02-20T09:55:40.607Z,16.98
2018-02-20T09:58:08.071Z,17.10
2018-02-20T10:00:35.827Z,17.27
2018-02-20T10:03:03.284Z,17.83
2018-02-20T10:05:30.924Z,17.52
2018-02-20T10:07:58.509Z,16.33
2018-02-20T10:10:25.973Z,17.33
2018-02-20T10:12:53.437Z,17.33
2018-02-20T10:15:20.896Z,16.87
2018-02-20T10:17:49.260Z,17.70
2018-02-20T10:20:16.740Z,15.98
2018-02-20T10:22:44.201Z,14.90
2018-02-20T10:25:12.471Z,17.60
2018-02-20T10:27:40.936Z,16.42
2018-02-20T10:30:08.392Z,19.12
2018-02-20T10:32:35.854Z,17.60
2018-02-20T10:35:03.315Z,17.42
2018-02-20T10:37:31.073Z,16.48
2018-02-20T10:39:58.538Z,16.15
2018-02-20T10:42:25.999Z,18.62
2018-02-20T10:44:53.460Z,17.12
2018-02-20T10:47:21.209Z,17.05
2018-02-20T10:49:48.976Z,18.08
2018-02-20T10:52:16.751Z,16.92
2018-02-20T10:54:44.430Z,17.35
2018-02-20T10:57:11.900Z,17.70
2018-02-20T10:59:39.364Z,18.02
2018-02-20T11:02:06.820Z,16.67
2018-02-20T11:04:34.377Z,17.92
2018-02-20T11:07:02.109Z,18.55
2018-02-20T11:09:29.876Z,17.95
2018-02-20T11:11:57.344Z,17.12
2018-02-20T11:14:24.868Z,17.70
2018-02-20T11:16:52.558Z,18.58
2018-02-20T11:19:20.273Z,16.90
2018-02-20T11:21:47.772Z,18.12
2018-02-20T11:24:15.546Z,17.80
2018-02-20T11:26:42.995Z,18.00
2018-02-20T11:29:10.455Z,17.27
2018-02-20T11:31:38.136Z,19.30
2018-02-20T11:34:05.688Z,18.05
2018-02-20T11:36:33.225Z,18.10
2018-02-20T11:39:00.816Z,19.10
2018-02-20T11:41:28.359Z,18.12
2018-02-20T11:43:55.817Z,18.95
2018-02-20T11:46:23.281Z,19.08
2018-02-20T11:48:50.743Z,19.35
2018-02-20T11:51:18.420Z,19.80
2018-02-20T11:53:45.891Z,18.95
2018-02-20T11:56:13.411Z,19.80
2018-02-20T11:58:40.876Z,17.35
2018-02-20T12:01:08.337Z,19.15
2018-02-20T12:03:35.810Z,20.20
2018-02-20T12:06:03.272Z,18.55
2018-02-20T12:08:30.732Z,18.83
2018-02-20T12:10:58.400Z,18.02
2018-02-20T12:13:26.764Z,20.08
2018-02-20T12:15:54.220Z,18.73
2018-02-20T12:18:21.688Z,19.17
2018-02-20T12:20:49.153Z,18.45
2018-02-20T12:23:16.631Z,18.83
2018-02-20T12:25:44.091Z,19.00
2018-02-20T12:28:11.599Z,16.20
2018-02-20T12:30:39.084Z,17.50
2018-02-20T12:33:06.819Z,17.10
2018-02-20T12:35:34.283Z,13.48
2018-02-20T12:38:01.842Z,14.45
2018-02-20T12:40:29.307Z,15.05
2018-02-20T12:42:57.573Z,13.35
2018-02-20T12:45:25.032Z,16.92
2018-02-20T12:47:52.506Z,16.30
2018-02-20T12:50:20.252Z,16.95
2018-02-20T12:52:47.716Z,16.52
2018-02-20T12:55:15.188Z,15.05
2018-02-20T12:57:42.878Z,16.48
2018-02-20T13:00:10.401Z,16.70
2018-02-20T13:02:38.158Z,17.15
2018-02-20T13:05:05.666Z,15.95
2018-02-20T13:07:33.383Z,14.15
2018-02-20T13:10:00.843Z,17.98
2018-02-20T13:12:28.322Z,16.12
2018-02-20T13:14:55.947Z,19.15
2018-02-20T13:17:23.516Z,16.55
2018-02-20T13:19:50.984Z,17.80
2018-02-20T13:22:18.439Z,19.35
2018-02-20T13:24:46.004Z,19.17
2018-02-20T13:27:13.659Z,19.40
2018-02-20T13:29:41.137Z,19.80
2018-02-20T13:32:08.791Z,20.20
2018-02-20T13:34:36.257Z,20.90
2018-02-20T13:37:03.724Z,18.40
2018-02-20T13:39:31.280Z,19.33
2018-02-20T13:41:58.956Z,19.90
2018-02-20T13:44:26.483Z,20.98
2018-02-20T13:46:54.250Z,20.67
2018-02-20T13:49:21.719Z,18.73
2018-02-20T13:51:49.475Z,21.52
2018-02-20T13:54:16.935Z,22.50
2018-02-20T13:56:44.693Z,18.80
2018-02-20T13:59:12.452Z,21.00
2018-02-20T14:01:39.915Z,20.60
2018-02-20T14:04:07.673Z,21.48
2018-02-20T14:06:35.139Z,20.17
2018-02-20T14:09:02.595Z,17.70
2018-02-20T14:11:30.365Z,19.20
2018-02-20T14:13:58.176Z,19.75
2018-02-20T14:16:25.587Z,19.85
2018-02-20T14:18:53.349Z,18.92
2018-02-20T14:21:20.803Z,18.60
2018-02-20T14:23:48.262Z,17.85
2018-02-20T14:26:17.235Z,17.27
2018-02-20T14:28:44.719Z,17.60
2018-02-20T14:31:12.491Z,14.23
2018-02-20T14:33:39.960Z,17.55
2018-02-20T14:36:07.621Z,18.58
2018-02-20T14:38:35.164Z,17.90
2018-02-20T14:41:02.939Z,21.73
2018-02-20T14:43:31.166Z,20.67
2018-02-20T14:45:58.809Z,18.95
2018-02-20T14:48:26.456Z,18.55
2018-02-20T14:50:53.983Z,20.45
2018-02-20T14:53:21.464Z,18.85
2018-02-20T14:55:48.931Z,17.60
2018-02-20T14:58:16.663Z,18.30
2018-02-20T15:00:44.355Z,18.62
2018-02-20T15:03:11.826Z,20.12
2018-02-20T15:05:39.283Z,18.20
2018-02-20T15:08:06.752Z,17.00
2018-02-20T15:10:34.224Z,16.98
2018-02-20T15:13:01.691Z,17.87
2018-02-20T15:15:29.151Z,17.67
2018-02-20T15:17:56.617Z,17.65
2018-02-20T15:20:24.084Z,19.12
2018-02-20T15:22:51.572Z,18.20
2018-02-20T15:25:19.248Z,17.45
2018-02-20T15:27:46.772Z,15.98
2018-02-20T15:30:14.252Z,16.92
2018-02-20T15:32:41.860Z,16.27
2018-02-20T15:35:09.318Z,17.20
2018-02-20T15:37:36.780Z,17.33
2018-02-20T15:40:04.247Z,18.73
2018-02-20T15:42:31.776Z,18.15
2018-02-20T15:44:59.243Z,17.00
2018-02-20T15:47:26.717Z,15.88
2018-02-20T15:49:54.185Z,17.10
2018-02-20T15:52:21.651Z,20.48
2018-02-20T15:54:49.111Z,19.37
2018-02-20T15:57:16.585Z,18.10
2018-02-20T15:59:44.344Z,20.65
2018-02-20T16:02:11.807Z,19.92
2018-02-20T16:04:39.283Z,18.55
2018-02-20T16:07:06.968Z,19.60
2018-02-20T16:09:34.420Z,19.48
2018-02-20T16:12:01.893Z,18.05
2018-02-20T16:14:29.353Z,18.85
2018-02-20T16:16:57.609Z,17.08
2018-02-20T16:19:25.179Z,19.62
2018-02-20T16:21:52.693Z,19.77
2018-02-20T16:24:20.160Z,20.90
2018-02-20T16:26:47.917Z,19.55
2018-02-20T16:29:15.595Z,20.65
2018-02-20T16:31:43.098Z,18.75
2018-02-20T16:34:10.601Z,20.42
2018-02-20T16:36:38.064Z,19.45
2018-02-20T16:39:05.829Z,20.30
2018-02-20T16:41:33.554Z,21.05
2018-02-20T16:44:01.039Z,20.25
2018-02-20T16:46:28.808Z,20.30
2018-02-20T16:48:56.576Z,22.20
2018-02-20T16:51:24.040Z,18.62
2018-02-20T16:53:51.795Z,21.83
2018-02-20T16:56:19.253Z,21.40
2018-02-20T16:58:46.716Z,17.40
2018-02-20T17:01:14.384Z,18.75
2018-02-20T17:03:41.936Z,19.08
2018-02-20T17:06:09.449Z,19.42
2018-02-20T17:08:36.915Z,19.00
2018-02-20T17:11:04.372Z,19.50
2018-02-20T17:13:31.854Z,18.55
2018-02-20T17:15:59.530Z,18.27
2018-02-20T17:18:27.148Z,18.10
2018-02-20T17:20:54.756Z,20.58
2018-02-20T17:23:22.212Z,19.10
2018-02-20T17:25:49.681Z,18.70
2018-02-20T17:28:17.143Z,19.30
2018-02-20T17:30:44.804Z,20.00
2018-02-20T17:33:12.365Z,20.05
2018-02-20T17:35:40.116Z,17.95
2018-02-20T17:38:07.583Z,16.83
2018-02-20T17:40:35.044Z,19.25
2018-02-20T17:43:02.796Z,21.87
2018-02-20T17:45:30.251Z,20.35
2018-02-20T17:47:58.016Z,19.95
2018-02-20T17:50:25.480Z,21.80
2018-02-20T17:52:53.239Z,18.92
2018-02-20T17:55:20.700Z,18.80
2018-02-20T17:57:48.155Z,20.55
2018-02-20T18:00:15.839Z,19.62
2018-02-20T18:02:43.379Z,21.35
2018-02-20T18:05:10.893Z,20.05
2018-02-20T18:07:38.604Z,19.50
2018-02-20T18:10:06.068Z,26.05
2018-02-20T18:12:33.536Z,20.45
2018-02-20T18:15:01.195Z,22.05
2018-02-20T18:17:28.659Z,21.58
2018-02-20T18:19:56.116Z,18.00
2018-02-20T18:22:23.660Z,23.05
2018-02-20T18:24:51.128Z,21.45
2018-02-20T18:27:18.884Z,20.25
2018-02-20T18:29:46.652Z,22.50
2018-02-20T18:32:14.099Z,23.08
2018-02-20T18:34:41.569Z,22.40
2018-02-20T18:37:09.347Z,22.42
2018-02-20T18:39:37.011Z,27.75
2018-02-20T18:42:04.557Z,25.35
2018-02-20T18:44:32.165Z,23.17
2018-02-20T18:46:59.771Z,23.35
2018-02-20T18:49:27.235Z,22.55
2018-02-20T18:51:54.791Z,25.83
2018-02-20T18:54:22.452Z,21.90
2018-02-20T18:56:50.228Z,22.25
2018-02-20T18:59:17.993Z,23.10
2018-02-20T19:01:45.451Z,22.17
2018-02-20T19:04:13.173Z,21.73
2018-02-20T19:06:40.672Z,23.52
2018-02-20T19:09:08.344Z,31.52
2018-02-20T19:11:35.891Z,27.77
2018-02-20T19:14:03.656Z,27.02
2018-02-20T19:16:31.120Z,32.08
2018-02-20T19:18:58.792Z,34.20
2018-02-20T19:21:26.340Z,32.80
2018-02-20T19:23:54.103Z,35.22
2018-02-20T19:26:21.783Z,25.17
2018-02-20T19:28:49.255Z,23.77
2018-02-20T19:31:16.783Z,24.02
2018-02-20T19:33:44.244Z,23.35
2018-02-20T19:36:11.700Z,25.20
2018-02-20T19:38:39.380Z,21.67
2018-02-20T19:41:06.928Z,21.30
2018-02-20T19:43:34.383Z,19.98
2018-02-20T19:46:02.144Z,21.77
2018-02-20T19:48:29.613Z,21.55
2018-02-20T19:50:57.677Z,22.92
2018-02-20T19:53:25.136Z,20.75
2018-02-20T19:55:52.622Z,23.20
2018-02-20T19:58:20.272Z,25.48
2018-02-20T20:00:47.732Z,22.65
2018-02-20T20:03:15.189Z,25.02
2018-02-20T20:05:42.663Z,24.83
2018-02-20T20:08:10.184Z,23.08
2018-02-20T20:10:37.963Z,25.83
2018-02-20T20:13:05.427Z,22.52
2018-02-20T20:15:33.175Z,27.05
2018-02-20T20:18:00.660Z,26.17
2018-02-20T20:20:36.906Z,25.85
2018-02-20T20:22:55.592Z,26.87
2018-02-20T20:25:23.176Z,26.40
2018-02-20T20:27:50.927Z,38.55
2018-02-20T20:30:18.378Z,32.80
2018-02-20T20:32:45.904Z,32.20
2018-02-20T20:35:13.452Z,32.75
2018-02-20T20:37:40.908Z,30.42
2018-02-20T20:40:08.601Z,27.85
2018-02-20T20:42:37.057Z,28.17
2018-02-20T20:45:04.742Z,28.98
2018-02-20T20:47:32.216Z,29.63
2018-02-20T20:49:59.732Z,28.40
2018-02-20T20:52:27.500Z,30.40
2018-02-20T20:54:55.268Z,29.87
2018-02-20T20:57:22.733Z,31.48
2018-02-20T20:59:51.104Z,32.65
2018-02-20T21:02:18.718Z,28.65
2018-02-20T21:04:46.169Z,30.30
2018-02-20T21:07:13.619Z,29.35
2018-02-20T21:09:41.164Z,31.50
2018-02-20T21:12:09.531Z,29.60
2018-02-20T21:14:37.080Z,30.65
2018-02-20T21:17:04.536Z,27.77
2018-02-20T21:19:32.000Z,30.90
2018-02-20T21:21:59.571Z,30.23
2018-02-20T21:24:27.796Z,31.40
2018-02-20T21:26:55.320Z,29.85
2018-02-20T21:29:23.064Z,30.58
2018-02-20T21:31:50.532Z,28.35
2018-02-20T21:34:17.991Z,29.52
2018-02-20T21:36:45.738Z,29.42
2018-02-20T21:39:13.503Z,27.25
2018-02-20T21:41:41.188Z,28.00
2018-02-20T21:44:09.415Z,32.03
2018-02-20T21:46:37.105Z,29.50
2018-02-20T21:49:04.873Z,30.33
2018-02-20T21:51:32.343Z,33.78
2018-02-20T21:53:59.920Z,28.33
2018-02-20T21:56:28.172Z,29.40
2018-02-20T21:58:55.631Z,31.20
2018-02-20T22:01:23.103Z,31.27
2018-02-20T22:03:50.851Z,30.48
2018-02-20T22:06:18.539Z,31.35
2018-02-20T22:08:46.068Z,28.62
2018-02-20T22:11:13.835Z,31.35
2018-02-20T22:13:41.307Z,30.73
2018-02-20T22:16:08.774Z,30.62
2018-02-20T22:18:36.519Z,31.70
2018-02-20T22:21:04.004Z,32.00
2018-02-20T22:23:31.477Z,28.75
2018-02-20T22:25:59.346Z,30.12
2018-02-20T22:28:26.812Z,29.98
2018-02-20T22:30:54.424Z,30.85
2018-02-20T22:33:21.893Z,29.77
2018-02-20T22:35:49.639Z,28.85
2018-02-20T22:38:17.402Z,28.05
2018-02-20T22:40:45.172Z,32.00
2018-02-20T22:43:12.936Z,30.40
2018-02-20T22:45:40.627Z,30.27
2018-02-20T22:48:08.159Z,29.17
2018-02-20T22:50:35.832Z,29.87
2018-02-20T22:53:03.299Z,30.83
2018-02-20T22:55:30.765Z,28.73
2018-02-20T22:57:59.140Z,29.52
2018-02-20T23:00:26.684Z,30.20
2018-02-20T23:02:54.209Z,29.63
2018-02-20T23:05:21.812Z,28.38
2018-02-20T23:07:50.048Z,26.98
2018-02-20T23:10:17.664Z,29.77
2018-02-20T23:12:45.175Z,28.95
2018-02-20T23:15:12.648Z,29.75
2018-02-20T23:17:40.120Z,30.33
2018-02-20T23:20:07.587Z,29.80
2018-02-20T23:22:35.219Z,30.75
2018-02-20T23:25:02.714Z,28.60
2018-02-20T23:27:30.175Z,31.50
2018-02-20T23:29:58.551Z,27.10
2018-02-20T23:32:26.096Z,30.60
2018-02-20T23:34:53.857Z,28.40
2018-02-20T23:37:21.368Z,33.00
2018-02-20T23:39:49.080Z,27.73
2018-02-20T23:42:16.844Z,28.35
2018-02-20T23:44:44.612Z,27.65
2018-02-20T23:47:12.327Z,27.58
2018-02-20T23:49:39.807Z,26.17
2018-02-20T23:52:08.210Z,30.65
2018-02-20T23:54:35.854Z,28.35
2018-02-20T23:57:03.435Z,27.40
2018-02-20T23:59:31.203Z,29.20
